Archival Weather

Randolph Afb

Universal City, Texas (KRND)

Report from: Monday, September 26, 2022 3:55 PM CDT
Current time: Saturday, February 4, 2023 9:24 PM CST

Current weather
Weather history
Weather forecast

Temperature34.6°C (94.3°F)
Heat index32.6°C (90.7°F)
Dew point8.3°C (46.9°F)
Winds 11 kts (5.7 m/s, 12.7 mph) North-Northeast (30°)
Wind gusts 16 kts (8.2 m/s, 18.4 mph)
Visibility10 mi. (16.1 km)
Clouds Sky clear
Altimeter29.97 in.Hg (1015 mB)
Relative humidity20 %
Density altitude2,330 ft. (710 m)
Sea-level pressure101.4 kPa (1014 mB, 29.94 in.Hg)
Remarks Fully automated report
Automated weather observing station with precipitation discriminator
Pressure falling
Flight conditions Visual Meteorological Conditions
Raw dataKRND 262055Z AUTO 03011G16KT 10SM CLR 35/08 A2997 RMK AO2 SLP139 T03460083 57026
An unhandled exception has occurred. See browser dev tools for details. Reload 🗙